Orlando, Florida
Traffic Map
Current Weather Conditions
Orlando, Florida
Clear
Clear
69°
Feels Like: 69°
Wind Chill: 69° Ceiling: Unl
Heat Index: 69° Visibility: 10mi
Dew Point: 46° Wind: 6mph
Humidity: 44% Direction: 350° (N)
Pressure: 30.15in Gusts: 0mph
Raw Report DataKORL 181753Z 35005KT 10SM CLR 21/08 A3015 RMK AO2 SLP212 T02060078 10206 20089 58014
Traffic Incident Summary
Active as of:
Severity:
Category:
InformationThere was an issue retrieving the traffic information for this location. Please try a different location or try again shortly.
Advertisements
Track Severe Weather on mobile